TimePST,TemperatureF,Dew PointF,Humidity,Sea Level PressureIn,VisibilityMPH,Wind Direction,Wind SpeedMPH,Gust SpeedMPH,PrecipitationIn,Events,Conditions,WindDirDegrees,DateUTC
12:56 AM,48.0,42.1,80,30.22,10.0,Calm,Calm,-,N/A,,Clear,0,2013-01-20 08:56:00
1:56 AM,44.1,35.1,71,30.23,10.0,Calm,Calm,-,N/A,,Clear,0,2013-01-20 09:56:00
2:56 AM,44.1,37.0,76,30.23,10.0,Calm,Calm,-,N/A,,Clear,0,2013-01-20 10:56:00
3:56 AM,44.1,37.9,79,30.22,10.0,Calm,Calm,-,N/A,,Clear,0,2013-01-20 11:56:00
4:56 AM,42.1,36.0,79,30.22,10.0,Calm,Calm,-,N/A,,Scattered Clouds,0,2013-01-20 12:56:00
5:56 AM,41.0,36.0,82,30.21,9.0,Calm,Calm,-,N/A,,Partly Cloudy,0,2013-01-20 13:56:00
6:56 AM,42.1,37.0,82,30.22,10.0,South,4.6,-,N/A,,Scattered Clouds,180,2013-01-20 14:56:00
7:56 AM,41.0,36.0,82,30.22,10.0,Calm,Calm,-,N/A,,Scattered Clouds,0,2013-01-20 15:56:00
8:56 AM,46.0,39.0,76,30.23,9.0,Calm,Calm,-,N/A,,Scattered Clouds,0,2013-01-20 16:56:00
9:56 AM,50.0,42.1,74,30.24,10.0,ESE,4.6,-,N/A,,Partly Cloudy,110,2013-01-20 17:56:00
10:56 AM,55.9,32.0,40,30.23,10.0,SSE,5.8,-,N/A,,Partly Cloudy,150,2013-01-20 18:56:00
11:56 AM,57.9,33.1,39,30.20,10.0,East,4.6,-,N/A,,Partly Cloudy,90,2013-01-20 19:56:00
12:56 PM,59.0,35.1,41,30.17,10.0,Calm,Calm,-,N/A,,Partly Cloudy,0,2013-01-20 20:56:00
1:56 PM,55.9,44.1,64,30.14,10.0,Calm,Calm,-,N/A,,Partly Cloudy,0,2013-01-20 21:56:00
2:56 PM,61.0,37.0,41,30.14,10.0,Calm,Calm,-,N/A,,Partly Cloudy,0,2013-01-20 22:56:00
3:56 PM,60.1,35.1,39,30.15,10.0,Calm,Calm,-,N/A,,Clear,0,2013-01-20 23:56:00
4:56 PM,55.0,39.9,57,30.14,10.0,Calm,Calm,-,N/A,,Clear,0,2013-01-21 00:56:00
5:56 PM,53.1,39.0,59,30.15,10.0,Calm,Calm,-,N/A,,Clear,0,2013-01-21 01:56:00
6:56 PM,55.0,35.1,47,30.15,10.0,Calm,Calm,-,N/A,,Clear,0,2013-01-21 02:56:00
7:56 PM,55.0,33.1,43,30.16,10.0,ENE,4.6,-,N/A,,Clear,60,2013-01-21 03:56:00
8:56 PM,51.1,37.0,59,30.17,10.0,Calm,Calm,-,N/A,,Clear,0,2013-01-21 04:56:00
9:56 PM,50.0,37.9,63,30.18,10.0,Calm,Calm,-,N/A,,Clear,0,2013-01-21 05:56:00
10:56 PM,48.0,37.0,66,30.18,10.0,Calm,Calm,-,N/A,,Clear,0,2013-01-21 06:56:00
11:56 PM,45.0,37.0,74,30.17,10.0,Calm,Calm,-,N/A,,Clear,0,2013-01-21 07:56:00